createdAt,value
2022-11-25T00:01:32.774Z,8.07
2022-11-25T00:04:00.945Z,7.88
2022-11-25T00:06:30.563Z,8.15
2022-11-25T00:09:01.589Z,7.70
2022-11-25T00:11:31.788Z,7.40
2022-11-25T00:13:59.614Z,7.68
2022-11-25T00:16:29.996Z,7.35
2022-11-25T00:19:01.833Z,8.75
2022-11-25T00:21:33.720Z,7.45
2022-11-25T00:24:04.045Z,6.47
2022-11-25T00:26:37.816Z,7.45
2022-11-25T00:29:10.635Z,7.28
2022-11-25T00:31:39.865Z,6.97
2022-11-25T00:34:11.072Z,7.07
2022-11-25T00:36:38.810Z,6.72
2022-11-25T00:39:09.523Z,6.50
2022-11-25T00:41:41.600Z,6.03
2022-11-25T00:44:14.316Z,6.70
2022-11-25T00:46:42.455Z,6.63
2022-11-25T00:49:10.118Z,6.88
2022-11-25T00:51:37.665Z,7.10
2022-11-25T00:54:05.796Z,6.70
2022-11-25T00:56:34.451Z,7.13
2022-11-25T00:59:06.696Z,7.30
2022-11-25T01:01:35.047Z,6.32
2022-11-25T01:04:03.246Z,7.45
2022-11-25T01:06:34.195Z,7.40
2022-11-25T01:09:02.173Z,6.40
2022-11-25T01:11:33.439Z,6.28
2022-11-25T01:14:08.974Z,6.50
2022-11-25T01:16:39.294Z,6.93
2022-11-25T01:19:08.462Z,7.30
2022-11-25T01:21:39.950Z,6.75
2022-11-25T01:24:08.055Z,6.63
2022-11-25T01:26:36.434Z,6.03
2022-11-25T01:29:07.944Z,6.55
2022-11-25T01:31:38.555Z,6.40
2022-11-25T01:34:08.395Z,7.38
2022-11-25T01:36:37.586Z,7.15
2022-11-25T01:39:08.692Z,7.22
2022-11-25T01:41:39.324Z,6.63
2022-11-25T01:44:12.654Z,6.53
2022-11-25T01:46:51.299Z,7.22
2022-11-25T01:49:26.580Z,7.45
2022-11-25T01:51:59.077Z,6.68
2022-11-25T01:54:34.878Z,7.65
2022-11-25T01:57:06.827Z,7.57
2022-11-25T01:59:45.916Z,7.57
2022-11-25T02:02:15.713Z,7.22
2022-11-25T02:04:44.932Z,7.13
2022-11-25T02:07:25.518Z,6.63
2022-11-25T02:09:54.071Z,6.85
2022-11-25T02:12:22.903Z,7.95
2022-11-25T02:14:56.073Z,6.47
2022-11-25T02:17:24.235Z,7.47
2022-11-25T02:19:59.854Z,7.38
2022-11-25T02:22:36.403Z,6.88
2022-11-25T02:25:17.361Z,8.38
2022-11-25T02:27:51.637Z,7.32
2022-11-25T02:30:19.766Z,6.53
2022-11-25T02:32:48.568Z,7.50
2022-11-25T02:35:33.695Z,8.25
2022-11-25T02:38:07.146Z,8.73
2022-11-25T02:40:41.898Z,7.38
2022-11-25T02:43:10.487Z,8.02
2022-11-25T02:45:47.998Z,6.82
2022-11-25T02:48:16.972Z,8.43
2022-11-25T02:50:44.898Z,7.90
2022-11-25T02:53:12.910Z,8.05
2022-11-25T02:55:45.243Z,7.60
2022-11-25T02:58:14.198Z,8.20
2022-11-25T03:00:45.521Z,8.68
2022-11-25T03:03:18.981Z,7.15
2022-11-25T03:05:46.971Z,9.32
2022-11-25T03:08:14.872Z,8.75
2022-11-25T03:10:44.113Z,9.00
2022-11-25T03:13:12.228Z,9.13
2022-11-25T03:15:43.497Z,9.35
2022-11-25T03:18:14.323Z,9.52
2022-11-25T03:20:45.024Z,9.25
2022-11-25T03:23:15.799Z,8.90
2022-11-25T03:25:47.198Z,10.40
2022-11-25T03:30:43.386Z,8.98
2022-11-25T03:33:10.992Z,11.45
2022-11-25T03:35:45.122Z,11.18
2022-11-25T03:38:17.031Z,10.85
2022-11-25T03:40:47.341Z,11.57
2022-11-25T03:43:15.477Z,12.03
2022-11-25T03:45:43.284Z,11.63
2022-11-25T03:48:13.970Z,11.50
2022-11-25T03:50:41.614Z,11.98
2022-11-25T03:53:09.415Z,10.43
2022-11-25T03:55:39.912Z,11.18
2022-11-25T03:58:08.897Z,11.27
2022-11-25T04:00:38.847Z,12.10
2022-11-25T04:03:06.640Z,11.93
2022-11-25T04:05:34.349Z,12.38
2022-11-25T04:08:02.249Z,11.40
2022-11-25T04:10:32.062Z,12.38
2022-11-25T04:13:03.825Z,13.33
2022-11-25T04:15:44.023Z,14.38
2022-11-25T04:18:11.659Z,15.07
2022-11-25T04:20:39.968Z,14.65
2022-11-25T04:23:11.873Z,14.60
2022-11-25T04:28:07.053Z,14.23
2022-11-25T04:30:37.753Z,16.05
2022-11-25T04:33:08.515Z,16.63
2022-11-25T04:38:05.099Z,15.13
2022-11-25T04:40:33.426Z,16.35
2022-11-25T04:43:04.871Z,15.20
2022-11-25T04:45:58.572Z,16.52
2022-11-25T04:48:23.210Z,17.27
2022-11-25T04:50:51.239Z,16.70
2022-11-25T04:53:19.085Z,18.70
2022-11-25T04:55:46.659Z,29.33
2022-11-25T04:58:16.034Z,20.35
2022-11-25T05:00:46.929Z,21.75
2022-11-25T05:03:14.477Z,30.98
2022-11-25T05:05:44.736Z,24.05
2022-11-25T05:08:12.285Z,28.67
2022-11-25T05:10:40.014Z,22.23
2022-11-25T05:13:13.845Z,23.90
2022-11-25T05:15:41.560Z,25.25
2022-11-25T05:18:18.967Z,26.00
2022-11-25T05:20:49.118Z,28.83
2022-11-25T05:23:16.881Z,37.45
2022-11-25T05:25:47.780Z,20.83
2022-11-25T05:28:15.335Z,22.35
2022-11-25T05:30:43.063Z,28.73
2022-11-25T05:33:12.038Z,22.50
2022-11-25T05:35:39.646Z,19.05
2022-11-25T05:38:08.821Z,19.65
2022-11-25T05:40:39.747Z,20.88
2022-11-25T05:43:07.355Z,20.48
2022-11-25T05:45:35.061Z,25.80
2022-11-25T05:48:05.847Z,27.10
2022-11-25T05:50:33.430Z,22.25
2022-11-25T05:53:01.007Z,22.02
2022-11-25T05:55:34.277Z,21.38
2022-11-25T05:58:02.042Z,22.33
2022-11-25T06:00:29.845Z,20.55
2022-11-25T06:03:01.322Z,20.42
2022-11-25T06:05:29.638Z,22.33
2022-11-25T06:07:57.940Z,19.00
2022-11-25T06:10:25.569Z,18.80
2022-11-25T06:12:57.632Z,20.70
2022-11-25T06:15:28.839Z,24.13
2022-11-25T06:17:58.018Z,32.15
2022-11-25T06:20:28.554Z,27.48
2022-11-25T06:22:57.891Z,62.55
2022-11-25T06:25:27.878Z,25.13
2022-11-25T06:28:12.406Z,47.33
2022-11-25T06:30:40.906Z,54.47
2022-11-25T06:33:08.778Z,28.88
2022-11-25T06:35:36.814Z,20.30
2022-11-25T06:38:04.617Z,19.60
2022-11-25T06:40:32.194Z,20.83
2022-11-25T06:43:04.274Z,22.25
2022-11-25T06:45:32.396Z,22.00
2022-11-25T06:48:00.443Z,19.38
2022-11-25T06:50:28.255Z,20.70
2022-11-25T06:53:00.801Z,18.90
2022-11-25T06:55:28.977Z,21.10
2022-11-25T06:58:13.968Z,21.45
2022-11-25T07:00:48.593Z,20.52
2022-11-25T07:03:18.621Z,19.23
2022-11-25T07:05:48.871Z,20.10
2022-11-25T07:08:16.496Z,19.90
2022-11-25T07:10:44.181Z,20.05
2022-11-25T07:13:12.004Z,24.00
2022-11-25T07:15:48.240Z,21.65
2022-11-25T07:18:19.612Z,20.17
2022-11-25T07:20:47.528Z,20.50
2022-11-25T07:23:15.106Z,19.27
2022-11-25T07:25:42.924Z,18.80
2022-11-25T07:28:10.581Z,22.17
2022-11-25T07:33:27.739Z,22.50
2022-11-25T07:35:55.758Z,21.08
2022-11-25T07:38:23.350Z,20.23
2022-11-25T07:40:53.047Z,18.60
2022-11-25T07:43:22.459Z,21.08
2022-11-25T07:45:50.251Z,19.48
2022-11-25T07:48:19.621Z,22.48
2022-11-25T07:50:48.794Z,23.58
2022-11-25T07:53:19.276Z,21.75
2022-11-25T07:55:46.851Z,22.25
2022-11-25T07:58:14.439Z,22.80
2022-11-25T08:00:42.200Z,21.38
2022-11-25T08:03:09.842Z,20.95
2022-11-25T08:05:39.401Z,21.55
2022-11-25T08:08:08.793Z,22.63
2022-11-25T08:10:40.070Z,21.13
2022-11-25T08:13:08.279Z,20.00
2022-11-25T08:15:36.102Z,18.05
2022-11-25T08:18:03.860Z,18.63
2022-11-25T08:20:31.691Z,20.17
2022-11-25T08:22:59.377Z,20.27
2022-11-25T08:25:28.382Z,20.50
2022-11-25T08:27:56.064Z,17.58
2022-11-25T08:30:23.967Z,18.45
2022-11-25T08:32:52.369Z,19.88
2022-11-25T08:35:20.492Z,20.70
2022-11-25T08:37:48.383Z,20.52
2022-11-25T08:40:16.043Z,21.02
2022-11-25T08:42:45.275Z,19.65
2022-11-25T08:45:13.213Z,19.58
2022-11-25T08:47:41.078Z,19.48
2022-11-25T08:50:10.776Z,19.42
2022-11-25T08:52:38.604Z,27.17
2022-11-25T08:55:07.578Z,22.60
2022-11-25T08:57:36.093Z,23.08
2022-11-25T09:00:07.195Z,22.15
2022-11-25T09:02:36.306Z,18.92
2022-11-25T09:05:04.452Z,19.48
2022-11-25T09:07:32.334Z,18.63
2022-11-25T09:10:00.154Z,22.52
2022-11-25T09:12:27.785Z,22.77
2022-11-25T09:14:55.624Z,20.50
2022-11-25T09:17:24.623Z,18.52
2022-11-25T09:19:52.278Z,19.70
2022-11-25T09:22:20.214Z,19.42
2022-11-25T09:24:47.977Z,19.17
2022-11-25T09:27:15.522Z,19.38
2022-11-25T09:29:43.364Z,18.73
2022-11-25T09:32:11.157Z,22.30
2022-11-25T09:34:40.469Z,21.92
2022-11-25T09:37:08.159Z,22.60
2022-11-25T09:39:37.519Z,20.15
2022-11-25T09:42:20.072Z,20.08
2022-11-25T09:45:01.035Z,20.92
2022-11-25T09:47:43.574Z,21.90
2022-11-25T09:50:26.857Z,23.65
2022-11-25T09:53:09.351Z,20.17
2022-11-25T09:55:47.353Z,21.85
2022-11-25T09:58:26.314Z,22.42
2022-11-25T10:00:54.091Z,21.58
2022-11-25T10:03:40.366Z,20.98
2022-11-25T10:06:16.131Z,21.08
2022-11-25T10:08:50.291Z,20.33
2022-11-25T10:13:55.094Z,19.45
2022-11-25T10:16:33.427Z,21.80
2022-11-25T10:19:06.148Z,20.35
2022-11-25T10:21:35.229Z,18.92
2022-11-25T10:24:03.687Z,19.15
2022-11-25T10:26:38.779Z,18.02
2022-11-25T10:29:27.241Z,19.08
2022-11-25T10:32:09.539Z,17.92
2022-11-25T10:34:44.506Z,16.95
2022-11-25T10:37:22.099Z,16.38
2022-11-25T10:39:50.059Z,18.45
2022-11-25T10:42:22.592Z,18.02
2022-11-25T10:44:50.915Z,19.65
2022-11-25T10:47:33.723Z,19.23
2022-11-25T10:50:12.548Z,18.38
2022-11-25T10:52:49.305Z,17.20
2022-11-25T10:55:20.081Z,20.23
2022-11-25T10:57:47.742Z,18.80
2022-11-25T21:07:13.511Z,13.27
2022-11-25T21:09:41.587Z,11.07
2022-11-25T21:12:18.916Z,10.48
2022-11-25T21:14:47.358Z,11.98
2022-11-25T23:12:14.472Z,15.68
2022-11-25T23:14:42.979Z,14.73
2022-11-25T23:17:17.783Z,15.30
2022-11-25T23:19:45.640Z,13.60
2022-11-25T23:22:13.208Z,11.75
2022-11-25T23:24:43.635Z,12.65
2022-11-25T23:27:13.404Z,13.73
2022-11-25T23:29:41.078Z,12.60
2022-11-25T23:32:17.568Z,13.20
2022-11-25T23:34:45.880Z,13.60
2022-11-25T23:37:14.576Z,12.50
2022-11-25T23:39:51.507Z,12.98
2022-11-25T23:42:20.998Z,13.15
2022-11-25T23:44:48.979Z,13.48
2022-11-25T23:47:20.542Z,12.88
2022-11-25T23:49:51.131Z,12.93
2022-11-25T23:52:24.286Z,13.10
2022-11-25T23:54:53.503Z,14.38
2022-11-25T23:57:26.561Z,14.00
2022-11-25T23:59:54.502Z,13.57
